This is the latest recevied weather packets stored in our database for station/object KC0RPY. If no packets are shown the sender has not sent any weather packets the latest 10 day(s).
| Time | Temp. | Humidity | Pressure | Rain* | Wind** | Luminosity | Snow |
|---|---|---|---|---|---|---|---|
| 1777960283 | 12.78° C | 86% | 1006.5 hPa | 4.83 mm | - | 0 W/m² | - |
| 1777959980 | 16.11° C | 75% | 1006.2 hPa | 3.05 mm | - | 0 W/m² | - |
| 1777959678 | 16.67° C | 67% | 1005.9 hPa | 0 mm | - | 0 W/m² | - |
| 1777959375 | 18.33° C | 61% | 1005.2 hPa | 0 mm | - | 0 W/m² | - |
| 1777959071 | 18.89° C | 54% | 1005.5 hPa | 0 mm | - | 0 W/m² | - |
| 1777958768 | 20° C | 53% | 1005.5 hPa | 0 mm | - | 0 W/m² | - |
| 1777958466 | 20.56° C | 52% | 1005.5 hPa | 0 mm | - | 0 W/m² | - |
| 1777958163 | 20.56° C | 54% | 1005.5 hPa | 0 mm | - | 0 W/m² | - |
| 1777957861 | 21.11° C | 67% | 1005.2 hPa | 0 mm | - | 0 W/m² | - |
| 1777957558 | 20.56° C | 76% | 1004.4 hPa | 0 mm | - | 0 W/m² | - |
| 1777957256 | 20.56° C | 76% | 1004.4 hPa | 0 mm | - | 0 W/m² | - |
| 1777956952 | 21.11° C | 73% | 1004.1 hPa | 0 mm | - | 0 W/m² | - |
| 1777956650 | 20.56° C | 73% | 1004.1 hPa | 0 mm | - | 0 W/m² | - |
| 1777956346 | 20.56° C | 73% | 1004.1 hPa | 0 mm | - | 0 W/m² | - |
| 1777956043 | 21.11° C | 73% | 1004.1 hPa | 0 mm | - | 0 W/m² | - |
| 1777955739 | 21.11° C | 73% | 1004.1 hPa | 0 mm | - | 0 W/m² | - |
| 1777955436 | 21.11° C | 73% | 1004.1 hPa | 0 mm | - | 0 W/m² | - |
| 1777955132 | 21.11° C | 74% | 1003.7 hPa | 0 mm | - | 0 W/m² | - |
| 1777954829 | 21.11° C | 74% | 1004.1 hPa | 0 mm | - | 0 W/m² | - |
| 1777954526 | 21.11° C | 74% | 1004.4 hPa | 0 mm | - | 0 W/m² | - |
| 1777954224 | 21.11° C | 73% | 1004.9 hPa | 0 mm | - | 0 W/m² | - |
| 1777953921 | 21.67° C | 73% | 1004.4 hPa | 0 mm | - | 0 W/m² | - |
| 1777953618 | 21.67° C | 73% | 1004.4 hPa | 0 mm | - | 0 W/m² | - |
| 1777953314 | 21.67° C | 72% | 1004.9 hPa | 0 mm | - | 0 W/m² | - |
| 1777953011 | 21.67° C | 72% | 1004.9 hPa | 0 mm | - | 0 W/m² | - |
* Rain latest hour (hover to see other rain measurements)
** Current wind speed in m/s (hover to see current wind gust speed)